PWSweather.com
Personal Weather Stations
Station Observations
PICKERING
North Yorkshire, PickeringGB

North YorkshirePickeringGB

Lat: 54.2494, Lon: -0.7725

Elevation: 192

Station Type: Oregon Scientific WMR100

http://www.yorkshirewalker.co.uk/weather/

High Low Average
Temperature 41.0°F5.0°C 24.6°F-4.1°C 31.1°F-0.5°C
Dew Point 32.0°F0.0°C 17.6°F-8.0°C 24.0°F-4.4°C
Winds 2.8 mph 4.5 kmh Calm Calm 1.0 mph E1.6 kmh E
Wind Gusts 6.5 mph10.5 kmh -- 3.0 mph4.8 kmh
Humidity 81% 67% 76%
Pressure 29.83 in1010.2 mb 29.62 in1003.0 mb -
Precipitation 0.06 in1.5 mm - -
Hour Temp Dew Point Humidity Winds Wind Gusts Pressure Precip Precip Rate Daily Precip Total
12:00 AM 29.1°F-1.6°C 21.2°F-6.0°C 75% Calm Calm -- 29.83 in1010.2 mb 0.00 in0.0 mm 0.00 in0.0 mm 0.00 in0.0 mm
12:05 AM 28.9°F-1.7°C 21.2°F-6.0°C 75% Calm Calm -- 29.83 in1010.2 mb 0.00 in0.0 mm 0.00 in0.0 mm 0.00 in0.0 mm
12:10 AM 29.3°F-1.5°C 21.2°F-6.0°C 76% 0.1 mph ENE0.2 kmh ENE 0.9 mph1.4 kmh 29.83 in1010.2 mb 0.00 in0.0 mm 0.00 in0.0 mm 0.00 in0.0 mm
12:15 AM 29.3°F-1.5°C 21.2°F-6.0°C 76% 0.2 mph E0.3 kmh E 1.6 mph2.6 kmh 29.83 in1010.2 mb 0.00 in0.0 mm 0.00 in0.0 mm 0.00 in0.0 mm
12:20 AM 29.1°F-1.6°C 21.2°F-6.0°C 76% 0.4 mph E0.6 kmh E 1.6 mph2.6 kmh 29.83 in1010.2 mb 0.00 in0.0 mm 0.00 in0.0 mm 0.00 in0.0 mm
12:25 AM 28.9°F-1.7°C 21.2°F-6.0°C 76% 0.9 mph E1.4 kmh E 1.6 mph2.6 kmh 29.83 in1010.2 mb 0.00 in0.0 mm 0.00 in0.0 mm 0.00 in0.0 mm
12:30 AM 29.1°F-1.6°C 21.2°F-6.0°C 76% 0.7 mph E1.1 kmh E 1.6 mph2.6 kmh 29.83 in1010.2 mb 0.00 in0.0 mm 0.00 in0.0 mm 0.00 in0.0 mm
12:35 AM 28.8°F-1.8°C 21.2°F-6.0°C 76% 0.3 mph ESE0.5 kmh ESE 1.3 mph2.1 kmh 29.83 in1010.2 mb 0.00 in0.0 mm 0.00 in0.0 mm 0.00 in0.0 mm
12:40 AM 28.4°F-2.0°C 21.2°F-6.0°C 75% 0.1 mph SSE0.2 kmh SSE 0.9 mph1.4 kmh 29.83 in1010.2 mb 0.00 in0.0 mm 0.00 in0.0 mm 0.00 in0.0 mm
12:45 AM 28.4°F-2.0°C 21.2°F-6.0°C 75% Calm Calm -- 29.83 in1010.2 mb 0.00 in0.0 mm 0.00 in0.0 mm 0.00 in0.0 mm
12:50 AM 28.0°F-2.2°C 21.2°F-6.0°C 75% Calm Calm -- 29.83 in1010.2 mb 0.00 in0.0 mm 0.00 in0.0 mm 0.00 in0.0 mm
12:55 AM 27.9°F-2.3°C 19.4°F-7.0°C 75% Calm Calm -- 29.83 in1010.2 mb 0.00 in0.0 mm 0.00 in0.0 mm 0.00 in0.0 mm
01:00 AM 27.9°F-2.3°C 19.4°F-7.0°C 75% Calm Calm -- 29.83 in1010.2 mb 0.00 in0.0 mm 0.00 in0.0 mm 0.00 in0.0 mm
01:05 AM 28.0°F-2.2°C 21.2°F-6.0°C 75% 0.3 mph E0.5 kmh E 0.9 mph1.4 kmh 29.83 in1010.2 mb 0.00 in0.0 mm 0.00 in0.0 mm 0.00 in0.0 mm
01:10 AM 27.7°F-2.4°C 19.4°F-7.0°C 75% 0.3 mph E0.5 kmh E 0.9 mph1.4 kmh 29.80 in1009.1 mb 0.00 in0.0 mm 0.00 in0.0 mm 0.00 in0.0 mm
01:15 AM 27.7°F-2.4°C 19.4°F-7.0°C 75% Calm Calm -- 29.80 in1009.1 mb 0.00 in0.0 mm 0.00 in0.0 mm 0.00 in0.0 mm
01:20 AM 27.9°F-2.3°C 19.4°F-7.0°C 76% 0.1 mph E0.2 kmh E 1.1 mph1.8 kmh 29.80 in1009.1 mb 0.00 in0.0 mm 0.00 in0.0 mm 0.00 in0.0 mm
01:25 AM 28.0°F-2.2°C 21.2°F-6.0°C 76% 0.6 mph ENE1.0 kmh ENE 1.1 mph1.8 kmh 29.83 in1010.2 mb 0.00 in0.0 mm 0.00 in0.0 mm 0.00 in0.0 mm
01:30 AM 27.9°F-2.3°C 19.4°F-7.0°C 76% 0.5 mph ENE0.8 kmh ENE 1.1 mph1.8 kmh 29.83 in1010.2 mb 0.00 in0.0 mm 0.00 in0.0 mm 0.00 in0.0 mm
01:35 AM 28.0°F-2.2°C 21.2°F-6.0°C 76% 0.3 mph NE0.5 kmh NE 1.1 mph1.8 kmh 29.83 in1010.2 mb 0.00 in0.0 mm 0.00 in0.0 mm 0.00 in0.0 mm
01:40 AM 27.9°F-2.3°C 19.4°F-7.0°C 76% 0.3 mph NE0.5 kmh NE 1.1 mph1.8 kmh 29.80 in1009.1 mb 0.00 in0.0 mm 0.00 in0.0 mm 0.00 in0.0 mm
01:45 AM 27.9°F-2.3°C 19.4°F-7.0°C 76% 0.6 mph E1.0 kmh E 1.3 mph2.1 kmh 29.80 in1009.1 mb 0.00 in0.0 mm 0.00 in0.0 mm 0.00 in0.0 mm
01:50 AM 27.9°F-2.3°C 19.4°F-7.0°C 76% 0.8 mph ENE1.3 kmh ENE 1.3 mph2.1 kmh 29.80 in1009.1 mb 0.00 in0.0 mm 0.00 in0.0 mm 0.00 in0.0 mm
01:55 AM 27.7°F-2.4°C 19.4°F-7.0°C 76% 0.5 mph NE0.8 kmh NE 1.3 mph2.1 kmh 29.83 in1010.2 mb 0.00 in0.0 mm 0.00 in0.0 mm 0.00 in0.0 mm
02:00 AM 27.9°F-2.3°C 19.4°F-7.0°C 76% 0.3 mph NE0.5 kmh NE 1.3 mph2.1 kmh 29.83 in1010.2 mb 0.00 in0.0 mm 0.00 in0.0 mm 0.00 in0.0 mm
02:05 AM 27.7°F-2.4°C 21.2°F-6.0°C 77% 0.5 mph NE0.8 kmh NE 1.3 mph2.1 kmh 29.83 in1010.2 mb 0.00 in0.0 mm 0.00 in0.0 mm 0.00 in0.0 mm
02:10 AM 27.7°F-2.4°C 21.2°F-6.0°C 77% 0.4 mph NE0.6 kmh NE 1.3 mph2.1 kmh 29.83 in1010.2 mb 0.00 in0.0 mm 0.00 in0.0 mm 0.00 in0.0 mm
02:15 AM 27.7°F-2.4°C 21.2°F-6.0°C 77% Calm Calm -- 29.83 in1010.2 mb 0.00 in0.0 mm 0.00 in0.0 mm 0.00 in0.0 mm
02:20 AM 27.5°F-2.5°C 19.4°F-7.0°C 77% 0.2 mph E0.3 kmh E 1.1 mph1.8 kmh 29.83 in1010.2 mb 0.00 in0.0 mm 0.00 in0.0 mm 0.00 in0.0 mm
02:25 AM 27.3°F-2.6°C 19.4°F-7.0°C 77% 0.4 mph E0.6 kmh E 1.1 mph1.8 kmh 29.83 in1010.2 mb 0.00 in0.0 mm 0.00 in0.0 mm 0.00 in0.0 mm
02:30 AM 27.1°F-2.7°C 19.4°F-7.0°C 77% 0.3 mph ENE0.5 kmh ENE 1.1 mph1.8 kmh 29.83 in1010.2 mb 0.00 in0.0 mm 0.00 in0.0 mm 0.00 in0.0 mm
02:35 AM 27.1°F-2.7°C 19.4°F-7.0°C 77% 0.4 mph NE0.6 kmh NE 1.3 mph2.1 kmh 29.83 in1010.2 mb 0.00 in0.0 mm 0.00 in0.0 mm 0.00 in0.0 mm
02:40 AM 27.3°F-2.6°C 19.4°F-7.0°C 77% 1.0 mph NE1.6 kmh NE 2.5 mph4.0 kmh 29.80 in1009.1 mb 0.00 in0.0 mm 0.00 in0.0 mm 0.00 in0.0 mm
02:45 AM 27.3°F-2.6°C 19.4°F-7.0°C 77% 1.2 mph NE1.9 kmh NE 2.7 mph4.3 kmh 29.80 in1009.1 mb 0.00 in0.0 mm 0.00 in0.0 mm 0.00 in0.0 mm
02:50 AM 27.3°F-2.6°C 19.4°F-7.0°C 77% 1.4 mph NE2.3 kmh NE 2.7 mph4.3 kmh 29.80 in1009.1 mb 0.00 in0.0 mm 0.00 in0.0 mm 0.00 in0.0 mm
02:55 AM 27.5°F-2.5°C 19.4°F-7.0°C 77% 1.6 mph NE2.6 kmh NE 2.7 mph4.3 kmh 29.80 in1009.1 mb 0.00 in0.0 mm 0.00 in0.0 mm 0.00 in0.0 mm
03:00 AM 27.5°F-2.5°C 19.4°F-7.0°C 77% 0.7 mph NE1.1 kmh NE 2.0 mph3.2 kmh 29.80 in1009.1 mb 0.00 in0.0 mm 0.00 in0.0 mm 0.00 in0.0 mm
03:05 AM 27.5°F-2.5°C 19.4°F-7.0°C 77% 0.6 mph NE1.0 kmh NE 2.0 mph3.2 kmh 29.80 in1009.1 mb 0.00 in0.0 mm 0.00 in0.0 mm 0.00 in0.0 mm
03:10 AM 27.3°F-2.6°C 19.4°F-7.0°C 77% 0.9 mph NE1.4 kmh NE 2.0 mph3.2 kmh 29.80 in1009.1 mb 0.00 in0.0 mm 0.00 in0.0 mm 0.00 in0.0 mm
03:15 AM 27.3°F-2.6°C 19.4°F-7.0°C 77% 0.6 mph NE1.0 kmh NE 1.3 mph2.1 kmh 29.80 in1009.1 mb 0.00 in0.0 mm 0.00 in0.0 mm 0.00 in0.0 mm
03:20 AM 27.1°F-2.7°C 19.4°F-7.0°C 77% 0.3 mph NE0.5 kmh NE 1.3 mph2.1 kmh 29.80 in1009.1 mb 0.00 in0.0 mm 0.00 in0.0 mm 0.00 in0.0 mm
03:25 AM 27.1°F-2.7°C 19.4°F-7.0°C 77% 0.7 mph NE1.1 kmh NE 2.5 mph4.0 kmh 29.80 in1009.1 mb 0.00 in0.0 mm 0.00 in0.0 mm 0.00 in0.0 mm
03:30 AM 27.0°F-2.8°C 19.4°F-7.0°C 77% 0.7 mph NE1.1 kmh NE 2.5 mph4.0 kmh 29.80 in1009.1 mb 0.00 in0.0 mm 0.00 in0.0 mm 0.00 in0.0 mm
03:35 AM 27.5°F-2.5°C 19.4°F-7.0°C 78% 1.4 mph NE2.3 kmh NE 4.0 mph6.4 kmh 29.80 in1009.1 mb 0.00 in0.0 mm 0.00 in0.0 mm 0.00 in0.0 mm
03:40 AM 27.5°F-2.5°C 19.4°F-7.0°C 78% 2.8 mph NE4.5 kmh NE 4.0 mph6.4 kmh 29.80 in1009.1 mb 0.00 in0.0 mm 0.00 in0.0 mm 0.00 in0.0 mm
03:45 AM 27.3°F-2.6°C 19.4°F-7.0°C 78% 1.3 mph NE2.1 kmh NE 3.4 mph5.5 kmh 29.80 in1009.1 mb 0.00 in0.0 mm 0.00 in0.0 mm 0.00 in0.0 mm
03:50 AM 27.3°F-2.6°C 19.4°F-7.0°C 78% 0.3 mph NE0.5 kmh NE 1.3 mph2.1 kmh 29.80 in1009.1 mb 0.00 in0.0 mm 0.00 in0.0 mm 0.00 in0.0 mm
03:55 AM 27.3°F-2.6°C 19.4°F-7.0°C 78% 0.1 mph NNE0.2 kmh NNE 1.1 mph1.8 kmh 29.80 in1009.1 mb 0.00 in0.0 mm 0.00 in0.0 mm 0.00 in0.0 mm
04:00 AM 27.1°F-2.7°C 19.4°F-7.0°C 78% Calm Calm -- 29.80 in1009.1 mb 0.00 in0.0 mm 0.00 in0.0 mm 0.00 in0.0 mm
04:05 AM 27.0°F-2.8°C 19.4°F-7.0°C 78% Calm Calm -- 29.80 in1009.1 mb 0.00 in0.0 mm 0.00 in0.0 mm 0.00 in0.0 mm
04:10 AM 27.0°F-2.8°C 19.4°F-7.0°C 78% 0.1 mph ENE0.2 kmh ENE 0.9 mph1.4 kmh 29.80 in1009.1 mb 0.00 in0.0 mm 0.00 in0.0 mm 0.00 in0.0 mm
04:15 AM 26.6°F-3.0°C 19.4°F-7.0°C 78% 0.1 mph ENE0.2 kmh ENE 0.9 mph1.4 kmh 29.80 in1009.1 mb 0.00 in0.0 mm 0.00 in0.0 mm 0.00 in0.0 mm
04:20 AM 26.8°F-2.9°C 19.4°F-7.0°C 78% 0.1 mph NE0.2 kmh NE 1.1 mph1.8 kmh 29.80 in1009.1 mb 0.00 in0.0 mm 0.00 in0.0 mm 0.00 in0.0 mm
04:25 AM 26.8°F-2.9°C 19.4°F-7.0°C 78% 0.7 mph NE1.1 kmh NE 2.9 mph4.7 kmh 29.80 in1009.1 mb 0.00 in0.0 mm 0.00 in0.0 mm 0.00 in0.0 mm
04:30 AM 26.8°F-2.9°C 19.4°F-7.0°C 78% 1.0 mph NE1.6 kmh NE 2.9 mph4.7 kmh 29.80 in1009.1 mb 0.00 in0.0 mm 0.00 in0.0 mm 0.00 in0.0 mm
04:35 AM 27.1°F-2.7°C 19.4°F-7.0°C 78% 1.2 mph NE1.9 kmh NE 2.7 mph4.3 kmh 29.80 in1009.1 mb 0.00 in0.0 mm 0.00 in0.0 mm 0.00 in0.0 mm
04:40 AM 27.0°F-2.8°C 19.4°F-7.0°C 78% 1.7 mph NE2.7 kmh NE 2.5 mph4.0 kmh 29.80 in1009.1 mb 0.00 in0.0 mm 0.00 in0.0 mm 0.00 in0.0 mm
04:45 AM 27.1°F-2.7°C 19.4°F-7.0°C 78% 2.2 mph NE3.5 kmh NE 3.1 mph5.0 kmh 29.80 in1009.1 mb 0.00 in0.0 mm 0.00 in0.0 mm 0.00 in0.0 mm
04:50 AM 27.0°F-2.8°C 19.4°F-7.0°C 78% 2.6 mph NE4.2 kmh NE 4.0 mph6.4 kmh 29.80 in1009.1 mb 0.00 in0.0 mm 0.00 in0.0 mm 0.00 in0.0 mm
04:55 AM 26.8°F-2.9°C 19.4°F-7.0°C 78% 1.2 mph NE1.9 kmh NE 4.0 mph6.4 kmh 29.80 in1009.1 mb 0.00 in0.0 mm 0.00 in0.0 mm 0.00 in0.0 mm
05:00 AM 26.6°F-3.0°C 19.4°F-7.0°C 78% 0.1 mph NE0.2 kmh NE 0.9 mph1.4 kmh 29.80 in1009.1 mb 0.00 in0.0 mm 0.00 in0.0 mm 0.00 in0.0 mm
05:05 AM 26.4°F-3.1°C 19.4°F-7.0°C 78% 0.1 mph ENE0.2 kmh ENE 0.9 mph1.4 kmh 29.80 in1009.1 mb 0.00 in0.0 mm 0.00 in0.0 mm 0.00 in0.0 mm
05:10 AM 26.1°F-3.3°C 19.4°F-7.0°C 78% Calm Calm -- 29.80 in1009.1 mb 0.00 in0.0 mm 0.00 in0.0 mm 0.00 in0.0 mm
05:15 AM 26.1°F-3.3°C 19.4°F-7.0°C 78% Calm Calm -- 29.80 in1009.1 mb 0.00 in0.0 mm 0.00 in0.0 mm 0.00 in0.0 mm
05:20 AM 25.7°F-3.5°C 19.4°F-7.0°C 78% Calm Calm -- 29.80 in1009.1 mb 0.00 in0.0 mm 0.00 in0.0 mm 0.00 in0.0 mm
05:25 AM 25.7°F-3.5°C 19.4°F-7.0°C 78% Calm Calm -- 29.80 in1009.1 mb 0.00 in0.0 mm 0.00 in0.0 mm 0.00 in0.0 mm
05:30 AM 25.9°F-3.4°C 19.4°F-7.0°C 78% Calm Calm -- 29.80 in1009.1 mb 0.00 in0.0 mm 0.00 in0.0 mm 0.00 in0.0 mm
05:35 AM 25.3°F-3.7°C 19.4°F-7.0°C 78% Calm Calm -- 29.80 in1009.1 mb 0.00 in0.0 mm 0.00 in0.0 mm 0.00 in0.0 mm
05:40 AM 25.3°F-3.7°C 19.4°F-7.0°C 78% Calm Calm -- 29.80 in1009.1 mb 0.00 in0.0 mm 0.00 in0.0 mm 0.00 in0.0 mm
05:45 AM 25.7°F-3.5°C 19.4°F-7.0°C 78% 0.1 mph ENE0.2 kmh ENE 1.1 mph1.8 kmh 29.80 in1009.1 mb 0.00 in0.0 mm 0.00 in0.0 mm 0.00 in0.0 mm
05:50 AM 25.5°F-3.6°C 19.4°F-7.0°C 78% 0.1 mph ENE0.2 kmh ENE 1.1 mph1.8 kmh 29.80 in1009.1 mb 0.00 in0.0 mm 0.00 in0.0 mm 0.00 in0.0 mm
05:55 AM 25.3°F-3.7°C 19.4°F-7.0°C 78% Calm Calm -- 29.77 in1008.1 mb 0.00 in0.0 mm 0.00 in0.0 mm 0.00 in0.0 mm
06:00 AM 25.5°F-3.6°C 19.4°F-7.0°C 78% Calm Calm -- 29.77 in1008.1 mb 0.00 in0.0 mm 0.00 in0.0 mm 0.00 in0.0 mm
06:05 AM 25.2°F-3.8°C 19.4°F-7.0°C 78% Calm Calm -- 29.77 in1008.1 mb 0.00 in0.0 mm 0.00 in0.0 mm 0.00 in0.0 mm
06:10 AM 25.2°F-3.8°C 19.4°F-7.0°C 78% Calm Calm -- 29.77 in1008.1 mb 0.00 in0.0 mm 0.00 in0.0 mm 0.00 in0.0 mm
06:15 AM 25.2°F-3.8°C 19.4°F-7.0°C 78% Calm Calm -- 29.77 in1008.1 mb 0.00 in0.0 mm 0.00 in0.0 mm 0.00 in0.0 mm
06:20 AM 25.2°F-3.8°C 19.4°F-7.0°C 78% 0.1 mph ENE0.2 kmh ENE 0.9 mph1.4 kmh 29.77 in1008.1 mb 0.00 in0.0 mm 0.00 in0.0 mm 0.00 in0.0 mm
06:25 AM 25.0°F-3.9°C 17.6°F-8.0°C 78% 0.1 mph ENE0.2 kmh ENE 0.9 mph1.4 kmh 29.77 in1008.1 mb 0.00 in0.0 mm 0.00 in0.0 mm 0.00 in0.0 mm
06:30 AM 24.6°F-4.1°C 17.6°F-8.0°C 78% 0.1 mph ENE0.2 kmh ENE 0.9 mph1.4 kmh 29.77 in1008.1 mb 0.00 in0.0 mm 0.00 in0.0 mm 0.00 in0.0 mm
06:35 AM 24.8°F-4.0°C 17.6°F-8.0°C 78% Calm Calm -- 29.77 in1008.1 mb 0.00 in0.0 mm 0.00 in0.0 mm 0.00 in0.0 mm
06:40 AM 24.6°F-4.1°C 17.6°F-8.0°C 78% Calm Calm -- 29.77 in1008.1 mb 0.00 in0.0 mm 0.00 in0.0 mm 0.00 in0.0 mm
06:45 AM 24.6°F-4.1°C 17.6°F-8.0°C 78% Calm Calm -- 29.77 in1008.1 mb 0.00 in0.0 mm 0.00 in0.0 mm 0.00 in0.0 mm
06:50 AM 24.6°F-4.1°C 17.6°F-8.0°C 78% 0.2 mph ENE0.3 kmh ENE 1.1 mph1.8 kmh 29.77 in1008.1 mb 0.00 in0.0 mm 0.00 in0.0 mm 0.00 in0.0 mm
06:55 AM 24.6°F-4.1°C 17.6°F-8.0°C 78% 0.3 mph ENE0.5 kmh ENE 1.1 mph1.8 kmh 29.77 in1008.1 mb 0.00 in0.0 mm 0.00 in0.0 mm 0.00 in0.0 mm
07:00 AM 24.6°F-4.1°C 17.6°F-8.0°C 78% 0.3 mph NE0.5 kmh NE 1.1 mph1.8 kmh 29.77 in1008.1 mb 0.00 in0.0 mm 0.00 in0.0 mm 0.00 in0.0 mm
07:05 AM 25.0°F-3.9°C 17.6°F-8.0°C 78% 0.9 mph NE1.4 kmh NE 2.5 mph4.0 kmh 29.77 in1008.1 mb 0.00 in0.0 mm 0.00 in0.0 mm 0.00 in0.0 mm
07:10 AM 25.0°F-3.9°C 19.4°F-7.0°C 79% 1.6 mph NE2.6 kmh NE 2.5 mph4.0 kmh 29.77 in1008.1 mb 0.00 in0.0 mm 0.00 in0.0 mm 0.00 in0.0 mm
07:15 AM 25.0°F-3.9°C 19.4°F-7.0°C 79% 1.4 mph NE2.3 kmh NE 2.5 mph4.0 kmh 29.77 in1008.1 mb 0.00 in0.0 mm 0.00 in0.0 mm 0.00 in0.0 mm
07:20 AM 25.0°F-3.9°C 19.4°F-7.0°C 79% 0.9 mph NE1.4 kmh NE 2.5 mph4.0 kmh 29.77 in1008.1 mb 0.00 in0.0 mm 0.00 in0.0 mm 0.00 in0.0 mm
07:25 AM 24.8°F-4.0°C 17.6°F-8.0°C 79% 0.4 mph NE0.6 kmh NE 1.6 mph2.6 kmh 29.77 in1008.1 mb 0.00 in0.0 mm 0.00 in0.0 mm 0.00 in0.0 mm
07:30 AM 25.2°F-3.8°C 19.4°F-7.0°C 79% 0.5 mph NE0.8 kmh NE 1.6 mph2.6 kmh 29.77 in1008.1 mb 0.00 in0.0 mm 0.00 in0.0 mm 0.00 in0.0 mm
07:35 AM 25.0°F-3.9°C 19.4°F-7.0°C 79% 1.1 mph NE1.8 kmh NE 2.0 mph3.2 kmh 29.77 in1008.1 mb 0.00 in0.0 mm 0.00 in0.0 mm 0.00 in0.0 mm
07:40 AM 25.2°F-3.8°C 19.4°F-7.0°C 79% 1.3 mph NE2.1 kmh NE 2.2 mph3.5 kmh 29.77 in1008.1 mb 0.00 in0.0 mm 0.00 in0.0 mm 0.00 in0.0 mm
07:45 AM 24.8°F-4.0°C 17.6°F-8.0°C 79% 1.4 mph NE2.3 kmh NE 2.2 mph3.5 kmh 29.77 in1008.1 mb 0.00 in0.0 mm 0.00 in0.0 mm 0.00 in0.0 mm
07:50 AM 24.8°F-4.0°C 17.6°F-8.0°C 79% 1.5 mph NE2.4 kmh NE 2.0 mph3.2 kmh 29.77 in1008.1 mb 0.00 in0.0 mm 0.00 in0.0 mm 0.00 in0.0 mm
07:55 AM 25.2°F-3.8°C 19.4°F-7.0°C 79% 1.5 mph NE2.4 kmh NE 2.2 mph3.5 kmh 29.77 in1008.1 mb 0.00 in0.0 mm 0.00 in0.0 mm 0.00 in0.0 mm
08:00 AM 25.2°F-3.8°C 19.4°F-7.0°C 79% 1.5 mph NE2.4 kmh NE 2.2 mph3.5 kmh 29.77 in1008.1 mb 0.00 in0.0 mm 0.00 in0.0 mm 0.00 in0.0 mm
08:05 AM 25.3°F-3.7°C 19.4°F-7.0°C 79% 1.2 mph NE1.9 kmh NE 2.0 mph3.2 kmh 29.77 in1008.1 mb 0.00 in0.0 mm 0.00 in0.0 mm 0.00 in0.0 mm
08:10 AM 25.3°F-3.7°C 19.4°F-7.0°C 79% 0.9 mph NE1.4 kmh NE 1.6 mph2.6 kmh 29.77 in1008.1 mb 0.00 in0.0 mm 0.00 in0.0 mm 0.00 in0.0 mm
08:15 AM 25.3°F-3.7°C 19.4°F-7.0°C 79% 0.5 mph NE0.8 kmh NE 1.6 mph2.6 kmh 29.77 in1008.1 mb 0.00 in0.0 mm 0.00 in0.0 mm 0.00 in0.0 mm
08:20 AM 25.3°F-3.7°C 19.4°F-7.0°C 79% 0.1 mph NE0.2 kmh NE 1.1 mph1.8 kmh 29.77 in1008.1 mb 0.00 in0.0 mm 0.00 in0.0 mm 0.00 in0.0 mm
08:25 AM 25.5°F-3.6°C 19.4°F-7.0°C 79% 0.7 mph NE1.1 kmh NE 1.3 mph2.1 kmh 29.77 in1008.1 mb 0.00 in0.0 mm 0.00 in0.0 mm 0.00 in0.0 mm
08:30 AM 25.3°F-3.7°C 19.4°F-7.0°C 79% 0.6 mph NE1.0 kmh NE 1.3 mph2.1 kmh 29.77 in1008.1 mb 0.00 in0.0 mm 0.00 in0.0 mm 0.00 in0.0 mm
08:35 AM 25.3°F-3.7°C 19.4°F-7.0°C 79% 0.1 mph NE0.2 kmh NE 1.1 mph1.8 kmh 29.77 in1008.1 mb 0.00 in0.0 mm 0.00 in0.0 mm 0.00 in0.0 mm
08:40 AM 25.3°F-3.7°C 19.4°F-7.0°C 79% 0.1 mph NE0.2 kmh NE 0.9 mph1.4 kmh 29.77 in1008.1 mb 0.00 in0.0 mm 0.00 in0.0 mm 0.00 in0.0 mm
08:45 AM 25.5°F-3.6°C 19.4°F-7.0°C 79% 0.1 mph NE0.2 kmh NE 0.9 mph1.4 kmh 29.77 in1008.1 mb 0.00 in0.0 mm 0.00 in0.0 mm 0.00 in0.0 mm
08:50 AM 25.7°F-3.5°C 19.4°F-7.0°C 79% Calm Calm -- 29.77 in1008.1 mb 0.00 in0.0 mm 0.00 in0.0 mm 0.00 in0.0 mm
08:55 AM 25.7°F-3.5°C 19.4°F-7.0°C 79% 0.1 mph NE0.2 kmh NE 0.9 mph1.4 kmh 29.77 in1008.1 mb 0.00 in0.0 mm 0.00 in0.0 mm 0.00 in0.0 mm
09:00 AM 26.1°F-3.3°C 19.4°F-7.0°C 79% 0.2 mph NE0.3 kmh NE 2.0 mph3.2 kmh 29.77 in1008.1 mb 0.00 in0.0 mm 0.00 in0.0 mm 0.00 in0.0 mm
09:05 AM 25.9°F-3.4°C 19.4°F-7.0°C 79% 0.1 mph NE0.2 kmh NE 2.0 mph3.2 kmh 29.77 in1008.1 mb 0.00 in0.0 mm 0.00 in0.0 mm 0.00 in0.0 mm
09:10 AM 26.1°F-3.3°C 19.4°F-7.0°C 79% 0.1 mph NE0.2 kmh NE 0.9 mph1.4 kmh 29.77 in1008.1 mb 0.00 in0.0 mm 0.00 in0.0 mm 0.00 in0.0 mm
09:15 AM 26.2°F-3.2°C 19.4°F-7.0°C 79% 0.2 mph NE0.3 kmh NE 0.9 mph1.4 kmh 29.77 in1008.1 mb 0.00 in0.0 mm 0.00 in0.0 mm 0.00 in0.0 mm
09:20 AM 26.6°F-3.0°C 19.4°F-7.0°C 79% 0.2 mph ENE0.3 kmh ENE 0.9 mph1.4 kmh 29.77 in1008.1 mb 0.00 in0.0 mm 0.00 in0.0 mm 0.00 in0.0 mm
09:25 AM 26.6°F-3.0°C 19.4°F-7.0°C 79% 0.2 mph NE0.3 kmh NE 0.9 mph1.4 kmh 29.77 in1008.1 mb 0.00 in0.0 mm 0.00 in0.0 mm 0.00 in0.0 mm
09:30 AM 26.6°F-3.0°C 19.4°F-7.0°C 79% 0.3 mph NE0.5 kmh NE 1.3 mph2.1 kmh 29.77 in1008.1 mb 0.00 in0.0 mm 0.00 in0.0 mm 0.00 in0.0 mm
09:35 AM 26.8°F-2.9°C 19.4°F-7.0°C 79% 0.6 mph NE1.0 kmh NE 2.0 mph3.2 kmh 29.77 in1008.1 mb 0.00 in0.0 mm 0.00 in0.0 mm 0.00 in0.0 mm
09:40 AM 27.0°F-2.8°C 19.4°F-7.0°C 79% 0.3 mph NE0.5 kmh NE 2.0 mph3.2 kmh 29.77 in1008.1 mb 0.00 in0.0 mm 0.00 in0.0 mm 0.00 in0.0 mm
09:45 AM 27.0°F-2.8°C 19.4°F-7.0°C 79% 0.2 mph NNE0.3 kmh NNE 1.3 mph2.1 kmh 29.77 in1008.1 mb 0.00 in0.0 mm 0.00 in0.0 mm 0.00 in0.0 mm
09:50 AM 27.1°F-2.7°C 21.2°F-6.0°C 79% 0.3 mph NE0.5 kmh NE 1.3 mph2.1 kmh 29.77 in1008.1 mb 0.00 in0.0 mm 0.00 in0.0 mm 0.00 in0.0 mm
09:55 AM 27.3°F-2.6°C 21.2°F-6.0°C 80% 1.1 mph NE1.8 kmh NE 2.5 mph4.0 kmh 29.77 in1008.1 mb 0.00 in0.0 mm 0.00 in0.0 mm 0.00 in0.0 mm
10:00 AM 27.5°F-2.5°C 21.2°F-6.0°C 80% 1.6 mph NE2.6 kmh NE 2.5 mph4.0 kmh 29.77 in1008.1 mb 0.00 in0.0 mm 0.00 in0.0 mm 0.00 in0.0 mm
10:05 AM 27.7°F-2.4°C 21.2°F-6.0°C 80% 1.3 mph ENE2.1 kmh ENE 2.5 mph4.0 kmh 29.77 in1008.1 mb 0.00 in0.0 mm 0.00 in0.0 mm 0.00 in0.0 mm
10:10 AM 27.9°F-2.3°C 21.2°F-6.0°C 80% 1.4 mph ENE2.3 kmh ENE 2.5 mph4.0 kmh 29.77 in1008.1 mb 0.00 in0.0 mm 0.00 in0.0 mm 0.00 in0.0 mm
10:15 AM 28.0°F-2.2°C 21.2°F-6.0°C 80% 1.2 mph E1.9 kmh E 2.2 mph3.5 kmh 29.77 in1008.1 mb 0.00 in0.0 mm 0.00 in0.0 mm 0.00 in0.0 mm
10:20 AM 28.4°F-2.0°C 21.2°F-6.0°C 80% 1.1 mph E1.8 kmh E 2.7 mph4.3 kmh 29.77 in1008.1 mb 0.00 in0.0 mm 0.00 in0.0 mm 0.00 in0.0 mm
10:25 AM 28.9°F-1.7°C 23.0°F-5.0°C 80% 1.5 mph E2.4 kmh E 2.7 mph4.3 kmh 29.77 in1008.1 mb 0.00 in0.0 mm 0.00 in0.0 mm 0.00 in0.0 mm
10:30 AM 29.8°F-1.2°C 23.0°F-5.0°C 81% 1.4 mph E2.3 kmh E 2.7 mph4.3 kmh 29.77 in1008.1 mb 0.00 in0.0 mm 0.00 in0.0 mm 0.00 in0.0 mm
10:35 AM 30.2°F-1.0°C 23.0°F-5.0°C 81% 1.2 mph E1.9 kmh E 2.7 mph4.3 kmh 29.77 in1008.1 mb 0.00 in0.0 mm 0.00 in0.0 mm 0.00 in0.0 mm
10:40 AM 30.9°F-0.6°C 24.8°F-4.0°C 80% 0.5 mph ESE0.8 kmh ESE 1.3 mph2.1 kmh 29.77 in1008.1 mb 0.00 in0.0 mm 0.00 in0.0 mm 0.00 in0.0 mm
10:45 AM 31.3°F-0.4°C 24.8°F-4.0°C 80% 0.6 mph E1.0 kmh E 2.9 mph4.7 kmh 29.77 in1008.1 mb 0.00 in0.0 mm 0.00 in0.0 mm 0.00 in0.0 mm
10:50 AM 31.6°F-0.2°C 24.8°F-4.0°C 80% 1.4 mph ESE2.3 kmh ESE 3.1 mph5.0 kmh 29.77 in1008.1 mb 0.00 in0.0 mm 0.00 in0.0 mm 0.00 in0.0 mm
10:55 AM 31.8°F-0.1°C 24.8°F-4.0°C 79% 1.4 mph ESE2.3 kmh ESE 3.4 mph5.5 kmh 29.77 in1008.1 mb 0.00 in0.0 mm 0.00 in0.0 mm 0.00 in0.0 mm
11:00 AM 32.0°F0.0°C 24.8°F-4.0°C 79% 1.1 mph SE1.8 kmh SE 3.4 mph5.5 kmh 29.77 in1008.1 mb 0.00 in0.0 mm 0.00 in0.0 mm 0.00 in0.0 mm
11:05 AM 32.2°F0.1°C 26.6°F-3.0°C 79% 1.7 mph ESE2.7 kmh ESE 3.4 mph5.5 kmh 29.77 in1008.1 mb 0.00 in0.0 mm 0.00 in0.0 mm 0.00 in0.0 mm
11:10 AM 32.4°F0.2°C 26.6°F-3.0°C 78% 2.0 mph ESE3.2 kmh ESE 3.4 mph5.5 kmh 29.77 in1008.1 mb 0.00 in0.0 mm 0.00 in0.0 mm 0.00 in0.0 mm
11:15 AM 32.5°F0.3°C 26.6°F-3.0°C 78% 1.5 mph ESE2.4 kmh ESE 2.5 mph4.0 kmh 29.77 in1008.1 mb 0.00 in0.0 mm 0.00 in0.0 mm 0.00 in0.0 mm
11:20 AM 32.9°F0.5°C 26.6°F-3.0°C 78% 1.2 mph E1.9 kmh E 2.7 mph4.3 kmh 29.77 in1008.1 mb 0.00 in0.0 mm 0.00 in0.0 mm 0.00 in0.0 mm
11:25 AM 33.3°F0.7°C 26.6°F-3.0°C 78% 0.7 mph ESE1.1 kmh ESE 2.7 mph4.3 kmh 29.77 in1008.1 mb 0.00 in0.0 mm 0.00 in0.0 mm 0.00 in0.0 mm
11:30 AM 33.6°F0.9°C 28.4°F-2.0°C 77% 1.1 mph ESE1.8 kmh ESE 3.8 mph6.1 kmh 29.77 in1008.1 mb 0.00 in0.0 mm 0.00 in0.0 mm 0.00 in0.0 mm
11:35 AM 33.8°F1.0°C 28.4°F-2.0°C 77% 1.8 mph SE2.9 kmh SE 3.8 mph6.1 kmh 29.77 in1008.1 mb 0.00 in0.0 mm 0.00 in0.0 mm 0.00 in0.0 mm
11:40 AM 34.5°F1.4°C 28.4°F-2.0°C 76% 2.0 mph ESE3.2 kmh ESE 6.0 mph9.7 kmh 29.74 in1007.1 mb 0.00 in0.0 mm 0.00 in0.0 mm 0.00 in0.0 mm
11:45 AM 35.2°F1.8°C 28.4°F-2.0°C 75% 2.4 mph E3.9 kmh E 6.0 mph9.7 kmh 29.74 in1007.1 mb 0.00 in0.0 mm 0.00 in0.0 mm 0.00 in0.0 mm
11:50 AM 36.3°F2.4°C 30.2°F-1.0°C 74% 2.4 mph E3.9 kmh E 6.0 mph9.7 kmh 29.74 in1007.1 mb 0.00 in0.0 mm 0.00 in0.0 mm 0.00 in0.0 mm
11:55 AM 37.2°F2.9°C 30.2°F-1.0°C 73% 1.3 mph ESE2.1 kmh ESE 2.5 mph4.0 kmh 29.74 in1007.1 mb 0.00 in0.0 mm 0.00 in0.0 mm 0.00 in0.0 mm
12:00 PM 37.9°F3.3°C 30.2°F-1.0°C 72% 1.6 mph E2.6 kmh E 2.9 mph4.7 kmh 29.74 in1007.1 mb 0.00 in0.0 mm 0.00 in0.0 mm 0.00 in0.0 mm
12:05 PM 38.1°F3.4°C 30.2°F-1.0°C 72% 2.3 mph ESE3.7 kmh ESE 3.4 mph5.5 kmh 29.74 in1007.1 mb 0.00 in0.0 mm 0.00 in0.0 mm 0.00 in0.0 mm
12:10 PM 38.7°F3.7°C 30.2°F-1.0°C 71% 1.8 mph SE2.9 kmh SE 3.4 mph5.5 kmh 29.71 in1006.1 mb 0.00 in0.0 mm 0.00 in0.0 mm 0.00 in0.0 mm
12:15 PM 39.4°F4.1°C 30.2°F-1.0°C 71% 1.2 mph ESE1.9 kmh ESE 2.9 mph4.7 kmh 29.71 in1006.1 mb 0.00 in0.0 mm 0.00 in0.0 mm 0.00 in0.0 mm
12:20 PM 40.3°F4.6°C 30.2°F-1.0°C 69% 1.3 mph ESE2.1 kmh ESE 3.1 mph5.0 kmh 29.71 in1006.1 mb 0.00 in0.0 mm 0.00 in0.0 mm 0.00 in0.0 mm
12:25 PM 41.0°F5.0°C 32.0°F0.0°C 69% 2.1 mph SE3.4 kmh SE 4.7 mph7.6 kmh 29.74 in1007.1 mb 0.00 in0.0 mm 0.00 in0.0 mm 0.00 in0.0 mm
12:30 PM 40.8°F4.9°C 32.0°F0.0°C 68% 2.8 mph SE4.5 kmh SE 4.7 mph7.6 kmh 29.74 in1007.1 mb 0.00 in0.0 mm 0.00 in0.0 mm 0.00 in0.0 mm
12:35 PM 40.6°F4.8°C 30.2°F-1.0°C 68% 2.7 mph ESE4.3 kmh ESE 4.7 mph7.6 kmh 29.74 in1007.1 mb 0.00 in0.0 mm 0.00 in0.0 mm 0.00 in0.0 mm
12:40 PM 40.1°F4.5°C 30.2°F-1.0°C 68% 2.5 mph ESE4.0 kmh ESE 4.7 mph7.6 kmh 29.74 in1007.1 mb 0.00 in0.0 mm 0.00 in0.0 mm 0.00 in0.0 mm
12:45 PM 40.5°F4.7°C 30.2°F-1.0°C 68% 2.1 mph SE3.4 kmh SE 4.3 mph6.9 kmh 29.74 in1007.1 mb 0.00 in0.0 mm 0.00 in0.0 mm 0.00 in0.0 mm
12:50 PM 40.1°F4.5°C 30.2°F-1.0°C 67% 1.8 mph ESE2.9 kmh ESE 3.8 mph6.1 kmh 29.74 in1007.1 mb 0.00 in0.0 mm 0.00 in0.0 mm 0.00 in0.0 mm
12:55 PM 40.1°F4.5°C 30.2°F-1.0°C 67% 2.1 mph ESE3.4 kmh ESE 3.6 mph5.8 kmh 29.74 in1007.1 mb 0.00 in0.0 mm 0.00 in0.0 mm 0.00 in0.0 mm
01:00 PM 39.7°F4.3°C 30.2°F-1.0°C 67% 2.5 mph SE4.0 kmh SE 4.5 mph7.2 kmh 29.74 in1007.1 mb 0.00 in0.0 mm 0.00 in0.0 mm 0.00 in0.0 mm
01:05 PM 39.6°F4.2°C 30.2°F-1.0°C 67% 1.8 mph SE2.9 kmh SE 4.5 mph7.2 kmh 29.74 in1007.1 mb 0.00 in0.0 mm 0.00 in0.0 mm 0.00 in0.0 mm
01:10 PM 38.8°F3.8°C 28.4°F-2.0°C 67% 2.1 mph ESE3.4 kmh ESE 4.9 mph7.9 kmh 29.74 in1007.1 mb 0.00 in0.0 mm 0.00 in0.0 mm 0.00 in0.0 mm
01:15 PM 39.6°F4.2°C 30.2°F-1.0°C 67% 2.6 mph ESE4.2 kmh ESE 4.9 mph7.9 kmh 29.74 in1007.1 mb 0.00 in0.0 mm 0.00 in0.0 mm 0.00 in0.0 mm
01:20 PM 39.0°F3.9°C 30.2°F-1.0°C 67% 2.5 mph E4.0 kmh E 4.9 mph7.9 kmh 29.74 in1007.1 mb 0.00 in0.0 mm 0.00 in0.0 mm 0.00 in0.0 mm
01:25 PM 37.6°F3.1°C 28.4°F-2.0°C 67% 2.7 mph E4.3 kmh E 4.9 mph7.9 kmh 29.71 in1006.1 mb 0.00 in0.0 mm 0.00 in0.0 mm 0.00 in0.0 mm
01:30 PM 37.0°F2.8°C 28.4°F-2.0°C 67% 2.7 mph ESE4.3 kmh ESE 4.0 mph6.4 kmh 29.71 in1006.1 mb 0.00 in0.0 mm 0.00 in0.0 mm 0.00 in0.0 mm
01:35 PM 36.5°F2.5°C 26.6°F-3.0°C 67% 2.3 mph E3.7 kmh E 4.3 mph6.9 kmh 29.71 in1006.1 mb 0.00 in0.0 mm 0.00 in0.0 mm 0.00 in0.0 mm
01:40 PM 36.3°F2.4°C 26.6°F-3.0°C 68% 2.1 mph ESE3.4 kmh ESE 6.5 mph10.5 kmh 29.71 in1006.1 mb 0.00 in0.0 mm 0.00 in0.0 mm 0.00 in0.0 mm
01:45 PM 36.0°F2.2°C 26.6°F-3.0°C 68% 2.5 mph SE4.0 kmh SE 6.5 mph10.5 kmh 29.71 in1006.1 mb 0.00 in0.0 mm 0.00 in0.0 mm 0.00 in0.0 mm
01:50 PM 35.8°F2.1°C 26.6°F-3.0°C 68% 2.6 mph SE4.2 kmh SE 6.5 mph10.5 kmh 29.71 in1006.1 mb 0.00 in0.0 mm 0.00 in0.0 mm 0.00 in0.0 mm
01:55 PM 35.8°F2.1°C 26.6°F-3.0°C 68% 1.8 mph E2.9 kmh E 6.0 mph9.7 kmh 29.71 in1006.1 mb 0.00 in0.0 mm 0.00 in0.0 mm 0.00 in0.0 mm
02:00 PM 35.8°F2.1°C 26.6°F-3.0°C 68% 1.4 mph ESE2.3 kmh ESE 3.4 mph5.5 kmh 29.71 in1006.1 mb 0.00 in0.0 mm 0.00 in0.0 mm 0.00 in0.0 mm
02:05 PM 35.8°F2.1°C 26.6°F-3.0°C 68% 1.6 mph SE2.6 kmh SE 3.4 mph5.5 kmh 29.71 in1006.1 mb 0.00 in0.0 mm 0.00 in0.0 mm 0.00 in0.0 mm
02:10 PM 36.0°F2.2°C 26.6°F-3.0°C 68% 1.9 mph ESE3.1 kmh ESE 3.8 mph6.1 kmh 29.71 in1006.1 mb 0.00 in0.0 mm 0.00 in0.0 mm 0.00 in0.0 mm
02:15 PM 35.8°F2.1°C 26.6°F-3.0°C 68% 2.2 mph SE3.5 kmh SE 5.4 mph8.7 kmh 29.71 in1006.1 mb 0.00 in0.0 mm 0.00 in0.0 mm 0.00 in0.0 mm
02:20 PM 35.6°F2.0°C 26.6°F-3.0°C 68% 1.8 mph SSE2.9 kmh SSE 5.4 mph8.7 kmh 29.71 in1006.1 mb 0.00 in0.0 mm 0.00 in0.0 mm 0.00 in0.0 mm
02:25 PM 35.4°F1.9°C 26.6°F-3.0°C 68% 1.4 mph SE2.3 kmh SE 3.4 mph5.5 kmh 29.62 in1003.0 mb 0.00 in0.0 mm 0.00 in0.0 mm 0.00 in0.0 mm
02:30 PM 35.2°F1.8°C 26.6°F-3.0°C 68% 2.2 mph ESE3.5 kmh ESE 4.0 mph6.4 kmh 29.62 in1003.0 mb 0.00 in0.0 mm 0.00 in0.0 mm 0.00 in0.0 mm
02:35 PM 34.9°F1.6°C 26.6°F-3.0°C 68% 2.4 mph SE3.9 kmh SE 4.0 mph6.4 kmh 29.62 in1003.0 mb 0.00 in0.0 mm 0.00 in0.0 mm 0.00 in0.0 mm
02:40 PM 34.5°F1.4°C 24.8°F-4.0°C 69% 2.3 mph ESE3.7 kmh ESE 4.0 mph6.4 kmh 29.71 in1006.1 mb 0.00 in0.0 mm 0.00 in0.0 mm 0.00 in0.0 mm
02:45 PM 34.5°F1.4°C 24.8°F-4.0°C 69% 2.4 mph E3.9 kmh E 5.4 mph8.7 kmh 29.71 in1006.1 mb 0.00 in0.0 mm 0.00 in0.0 mm 0.00 in0.0 mm
02:50 PM 34.5°F1.4°C 24.8°F-4.0°C 69% 1.8 mph E2.9 kmh E 5.4 mph8.7 kmh 29.71 in1006.1 mb 0.00 in0.0 mm 0.00 in0.0 mm 0.00 in0.0 mm
02:55 PM 34.5°F1.4°C 24.8°F-4.0°C 69% 1.5 mph SE2.4 kmh SE 3.1 mph5.0 kmh 29.68 in1005.1 mb 0.00 in0.0 mm 0.00 in0.0 mm 0.00 in0.0 mm
03:00 PM 34.5°F1.4°C 24.8°F-4.0°C 69% 1.7 mph SE2.7 kmh SE 3.6 mph5.8 kmh 29.68 in1005.1 mb 0.00 in0.0 mm 0.00 in0.0 mm 0.00 in0.0 mm
03:05 PM 34.5°F1.4°C 24.8°F-4.0°C 69% 2.3 mph ESE3.7 kmh ESE 4.5 mph7.2 kmh 29.68 in1005.1 mb 0.00 in0.0 mm 0.00 in0.0 mm 0.00 in0.0 mm
03:10 PM 34.5°F1.4°C 24.8°F-4.0°C 69% 2.4 mph ESE3.9 kmh ESE 5.4 mph8.7 kmh 29.65 in1004.1 mb 0.00 in0.0 mm 0.00 in0.0 mm 0.00 in0.0 mm
03:15 PM 34.5°F1.4°C 24.8°F-4.0°C 69% 2.0 mph ESE3.2 kmh ESE 5.4 mph8.7 kmh 29.65 in1004.1 mb 0.00 in0.0 mm 0.00 in0.0 mm 0.00 in0.0 mm
03:20 PM 34.5°F1.4°C 24.8°F-4.0°C 69% 1.9 mph E3.1 kmh E 3.4 mph5.5 kmh 29.65 in1004.1 mb 0.00 in0.0 mm 0.00 in0.0 mm 0.00 in0.0 mm
03:25 PM 34.5°F1.4°C 24.8°F-4.0°C 69% 1.5 mph E2.4 kmh E 3.6 mph5.8 kmh 29.68 in1005.1 mb 0.00 in0.0 mm 0.00 in0.0 mm 0.00 in0.0 mm
03:30 PM 34.3°F1.3°C 24.8°F-4.0°C 69% 1.5 mph E2.4 kmh E 3.6 mph5.8 kmh 29.68 in1005.1 mb 0.00 in0.0 mm 0.00 in0.0 mm 0.00 in0.0 mm
03:35 PM 34.3°F1.3°C 24.8°F-4.0°C 69% 1.7 mph E2.7 kmh E 2.9 mph4.7 kmh 29.68 in1005.1 mb 0.00 in0.0 mm 0.00 in0.0 mm 0.00 in0.0 mm
03:40 PM 34.2°F1.2°C 26.6°F-3.0°C 70% 1.6 mph E2.6 kmh E 3.1 mph5.0 kmh 29.68 in1005.1 mb 0.00 in0.0 mm 0.00 in0.0 mm 0.00 in0.0 mm
03:45 PM 34.2°F1.2°C 26.6°F-3.0°C 70% 1.9 mph ESE3.1 kmh ESE 3.6 mph5.8 kmh 29.68 in1005.1 mb 0.00 in0.0 mm 0.00 in0.0 mm 0.00 in0.0 mm
03:50 PM 34.2°F1.2°C 26.6°F-3.0°C 70% 2.0 mph ESE3.2 kmh ESE 3.6 mph5.8 kmh 29.68 in1005.1 mb 0.00 in0.0 mm 0.00 in0.0 mm 0.00 in0.0 mm
03:55 PM 34.0°F1.1°C 24.8°F-4.0°C 70% 1.5 mph SE2.4 kmh SE 2.9 mph4.7 kmh 29.68 in1005.1 mb 0.00 in0.0 mm 0.00 in0.0 mm 0.00 in0.0 mm
04:00 PM 34.0°F1.1°C 24.8°F-4.0°C 70% 1.6 mph SE2.6 kmh SE 2.5 mph4.0 kmh 29.68 in1005.1 mb 0.00 in0.0 mm 0.00 in0.0 mm 0.00 in0.0 mm
04:05 PM 34.0°F1.1°C 26.6°F-3.0°C 71% 1.4 mph ESE2.3 kmh ESE 2.5 mph4.0 kmh 29.68 in1005.1 mb 0.00 in0.0 mm 0.00 in0.0 mm 0.00 in0.0 mm
04:10 PM 34.0°F1.1°C 26.6°F-3.0°C 71% 1.2 mph E1.9 kmh E 2.9 mph4.7 kmh 29.68 in1005.1 mb 0.00 in0.0 mm 0.00 in0.0 mm 0.00 in0.0 mm
04:15 PM 33.8°F1.0°C 26.6°F-3.0°C 71% 1.4 mph SE2.3 kmh SE 2.9 mph4.7 kmh 29.68 in1005.1 mb 0.00 in0.0 mm 0.00 in0.0 mm 0.00 in0.0 mm
04:20 PM 33.8°F1.0°C 26.6°F-3.0°C 71% 1.2 mph SE1.9 kmh SE 2.9 mph4.7 kmh 29.68 in1005.1 mb 0.00 in0.0 mm 0.00 in0.0 mm 0.00 in0.0 mm
04:25 PM 33.8°F1.0°C 26.6°F-3.0°C 71% 0.6 mph ESE1.0 kmh ESE 1.1 mph1.8 kmh 29.68 in1005.1 mb 0.00 in0.0 mm 0.00 in0.0 mm 0.00 in0.0 mm
04:30 PM 33.8°F1.0°C 26.6°F-3.0°C 72% 0.6 mph E1.0 kmh E 1.6 mph2.6 kmh 29.68 in1005.1 mb 0.00 in0.0 mm 0.00 in0.0 mm 0.00 in0.0 mm
04:35 PM 33.8°F1.0°C 26.6°F-3.0°C 72% 0.9 mph E1.4 kmh E 1.6 mph2.6 kmh 29.68 in1005.1 mb 0.00 in0.0 mm 0.00 in0.0 mm 0.00 in0.0 mm
04:40 PM 33.8°F1.0°C 26.6°F-3.0°C 72% 1.2 mph ESE1.9 kmh ESE 2.2 mph3.5 kmh 29.68 in1005.1 mb 0.00 in0.0 mm 0.00 in0.0 mm 0.00 in0.0 mm
04:45 PM 33.8°F1.0°C 26.6°F-3.0°C 72% 1.4 mph SE2.3 kmh SE 2.2 mph3.5 kmh 29.68 in1005.1 mb 0.00 in0.0 mm 0.00 in0.0 mm 0.00 in0.0 mm
04:50 PM 33.6°F0.9°C 26.6°F-3.0°C 72% 1.7 mph SE2.7 kmh SE 2.7 mph4.3 kmh 29.68 in1005.1 mb 0.00 in0.0 mm 0.00 in0.0 mm 0.00 in0.0 mm
04:55 PM 33.6°F0.9°C 26.6°F-3.0°C 72% 1.9 mph SE3.1 kmh SE 2.9 mph4.7 kmh 29.68 in1005.1 mb 0.00 in0.0 mm 0.00 in0.0 mm 0.00 in0.0 mm
05:00 PM 33.6°F0.9°C 26.6°F-3.0°C 72% 1.9 mph ESE3.1 kmh ESE 3.4 mph5.5 kmh 29.68 in1005.1 mb 0.00 in0.0 mm 0.00 in0.0 mm 0.00 in0.0 mm
05:05 PM 33.6°F0.9°C 26.6°F-3.0°C 73% 2.4 mph ESE3.9 kmh ESE 4.0 mph6.4 kmh 29.68 in1005.1 mb 0.00 in0.0 mm 0.00 in0.0 mm 0.00 in0.0 mm
05:10 PM 33.6°F0.9°C 26.6°F-3.0°C 73% 2.2 mph E3.5 kmh E 4.0 mph6.4 kmh 29.68 in1005.1 mb 0.00 in0.0 mm 0.00 in0.0 mm 0.00 in0.0 mm
05:15 PM 33.8°F1.0°C 26.6°F-3.0°C 73% 2.0 mph E3.2 kmh E 3.4 mph5.5 kmh 29.68 in1005.1 mb 0.00 in0.0 mm 0.00 in0.0 mm 0.00 in0.0 mm
05:20 PM 33.6°F0.9°C 26.6°F-3.0°C 73% 2.0 mph SE3.2 kmh SE 3.1 mph5.0 kmh 29.68 in1005.1 mb 0.00 in0.0 mm 0.00 in0.0 mm 0.00 in0.0 mm
05:25 PM 33.6°F0.9°C 26.6°F-3.0°C 73% 1.6 mph ESE2.6 kmh ESE 3.8 mph6.1 kmh 29.65 in1004.1 mb 0.00 in0.0 mm 0.00 in0.0 mm 0.00 in0.0 mm
05:30 PM 33.6°F0.9°C 26.6°F-3.0°C 73% 1.4 mph ESE2.3 kmh ESE 3.8 mph6.1 kmh 29.65 in1004.1 mb 0.00 in0.0 mm 0.00 in0.0 mm 0.00 in0.0 mm
05:35 PM 33.8°F1.0°C 26.6°F-3.0°C 73% 1.7 mph ESE2.7 kmh ESE 3.8 mph6.1 kmh 29.65 in1004.1 mb 0.00 in0.0 mm 0.00 in0.0 mm 0.00 in0.0 mm
05:40 PM 33.8°F1.0°C 26.6°F-3.0°C 73% 2.1 mph ESE3.4 kmh ESE 3.8 mph6.1 kmh 29.65 in1004.1 mb 0.00 in0.0 mm 0.00 in0.0 mm 0.00 in0.0 mm
05:45 PM 33.8°F1.0°C 26.6°F-3.0°C 73% 1.9 mph SE3.1 kmh SE 4.7 mph7.6 kmh 29.65 in1004.1 mb 0.00 in0.0 mm 0.00 in0.0 mm 0.00 in0.0 mm
05:50 PM 33.8°F1.0°C 26.6°F-3.0°C 73% 2.3 mph SE3.7 kmh SE 4.7 mph7.6 kmh 29.65 in1004.1 mb 0.00 in0.0 mm 0.00 in0.0 mm 0.00 in0.0 mm
05:55 PM 33.8°F1.0°C 26.6°F-3.0°C 73% 2.1 mph SE3.4 kmh SE 4.0 mph6.4 kmh 29.65 in1004.1 mb 0.00 in0.0 mm 0.00 in0.0 mm 0.00 in0.0 mm
06:00 PM 33.8°F1.0°C 26.6°F-3.0°C 73% 1.6 mph SE2.6 kmh SE 3.4 mph5.5 kmh 29.65 in1004.1 mb 0.00 in0.0 mm 0.00 in0.0 mm 0.00 in0.0 mm
06:05 PM 33.8°F1.0°C 26.6°F-3.0°C 74% 1.3 mph ESE2.1 kmh ESE 3.1 mph5.0 kmh 29.65 in1004.1 mb 0.00 in0.0 mm 0.00 in0.0 mm 0.00 in0.0 mm
06:10 PM 33.8°F1.0°C 26.6°F-3.0°C 74% 1.0 mph E1.6 kmh E 2.2 mph3.5 kmh 29.65 in1004.1 mb 0.00 in0.0 mm 0.00 in0.0 mm 0.00 in0.0 mm
06:15 PM 33.8°F1.0°C 26.6°F-3.0°C 74% 1.3 mph E2.1 kmh E 3.1 mph5.0 kmh 29.65 in1004.1 mb 0.00 in0.0 mm 0.00 in0.0 mm 0.00 in0.0 mm
06:20 PM 33.8°F1.0°C 26.6°F-3.0°C 74% 1.6 mph ESE2.6 kmh ESE 3.6 mph5.8 kmh 29.65 in1004.1 mb 0.00 in0.0 mm 0.00 in0.0 mm 0.00 in0.0 mm
06:25 PM 34.0°F1.1°C 26.6°F-3.0°C 74% 1.8 mph ESE2.9 kmh ESE 3.6 mph5.8 kmh 29.65 in1004.1 mb 0.00 in0.0 mm 0.00 in0.0 mm 0.00 in0.0 mm
06:30 PM 34.2°F1.2°C 26.6°F-3.0°C 74% 2.4 mph SE3.9 kmh SE 4.0 mph6.4 kmh 29.65 in1004.1 mb 0.00 in0.0 mm 0.00 in0.0 mm 0.00 in0.0 mm
06:35 PM 34.2°F1.2°C 26.6°F-3.0°C 74% 2.2 mph SE3.5 kmh SE 4.0 mph6.4 kmh 29.65 in1004.1 mb 0.00 in0.0 mm 0.00 in0.0 mm 0.00 in0.0 mm
06:40 PM 34.2°F1.2°C 26.6°F-3.0°C 74% 1.7 mph E2.7 kmh E 2.7 mph4.3 kmh 29.65 in1004.1 mb 0.00 in0.0 mm 0.00 in0.0 mm 0.00 in0.0 mm
06:45 PM 34.2°F1.2°C 26.6°F-3.0°C 74% 1.5 mph E2.4 kmh E 2.7 mph4.3 kmh 29.65 in1004.1 mb 0.00 in0.0 mm 0.00 in0.0 mm 0.00 in0.0 mm
06:50 PM 34.3°F1.3°C 26.6°F-3.0°C 74% 1.1 mph ESE1.8 kmh ESE 2.5 mph4.0 kmh 29.65 in1004.1 mb 0.00 in0.0 mm 0.00 in0.0 mm 0.00 in0.0 mm
06:55 PM 34.3°F1.3°C 26.6°F-3.0°C 74% 1.3 mph SE2.1 kmh SE 2.5 mph4.0 kmh 29.65 in1004.1 mb 0.00 in0.0 mm 0.00 in0.0 mm 0.00 in0.0 mm
07:00 PM 34.5°F1.4°C 26.6°F-3.0°C 74% 1.3 mph E2.1 kmh E 2.5 mph4.0 kmh 29.65 in1004.1 mb 0.00 in0.0 mm 0.00 in0.0 mm 0.00 in0.0 mm
07:05 PM 34.5°F1.4°C 26.6°F-3.0°C 74% 1.3 mph ESE2.1 kmh ESE 2.5 mph4.0 kmh 29.65 in1004.1 mb 0.00 in0.0 mm 0.00 in0.0 mm 0.00 in0.0 mm
07:10 PM 34.5°F1.4°C 26.6°F-3.0°C 74% 1.2 mph ESE1.9 kmh ESE 2.2 mph3.5 kmh 29.65 in1004.1 mb 0.00 in0.0 mm 0.00 in0.0 mm 0.00 in0.0 mm
07:15 PM 34.7°F1.5°C 28.4°F-2.0°C 74% 1.2 mph E1.9 kmh E 3.1 mph5.0 kmh 29.65 in1004.1 mb 0.00 in0.0 mm 0.00 in0.0 mm 0.00 in0.0 mm
07:20 PM 34.7°F1.5°C 28.4°F-2.0°C 74% 1.0 mph E1.6 kmh E 3.1 mph5.0 kmh 29.65 in1004.1 mb 0.00 in0.0 mm 0.00 in0.0 mm 0.00 in0.0 mm
07:25 PM 34.9°F1.6°C 28.4°F-2.0°C 74% 1.1 mph E1.8 kmh E 2.5 mph4.0 kmh 29.65 in1004.1 mb 0.00 in0.0 mm 0.00 in0.0 mm 0.00 in0.0 mm
07:30 PM 34.9°F1.6°C 28.4°F-2.0°C 74% 1.5 mph ESE2.4 kmh ESE 3.6 mph5.8 kmh 29.65 in1004.1 mb 0.00 in0.0 mm 0.00 in0.0 mm 0.00 in0.0 mm
07:35 PM 34.9°F1.6°C 28.4°F-2.0°C 74% 1.6 mph SE2.6 kmh SE 3.6 mph5.8 kmh 29.65 in1004.1 mb 0.00 in0.0 mm 0.00 in0.0 mm 0.00 in0.0 mm
07:40 PM 35.1°F1.7°C 28.4°F-2.0°C 74% 1.7 mph SSE2.7 kmh SSE 3.6 mph5.8 kmh 29.65 in1004.1 mb 0.00 in0.0 mm 0.00 in0.0 mm 0.00 in0.0 mm
07:45 PM 35.1°F1.7°C 28.4°F-2.0°C 74% 1.9 mph SE3.1 kmh SE 3.6 mph5.8 kmh 29.65 in1004.1 mb 0.00 in0.0 mm 0.00 in0.0 mm 0.00 in0.0 mm
07:50 PM 35.2°F1.8°C 28.4°F-2.0°C 75% 1.5 mph SE2.4 kmh SE 3.6 mph5.8 kmh 29.65 in1004.1 mb 0.00 in0.0 mm 0.00 in0.0 mm 0.00 in0.0 mm
07:55 PM 35.2°F1.8°C 28.4°F-2.0°C 75% 1.7 mph SSE2.7 kmh SSE 3.6 mph5.8 kmh 29.65 in1004.1 mb 0.00 in0.0 mm 0.00 in0.0 mm 0.00 in0.0 mm
08:00 PM 35.1°F1.7°C 28.4°F-2.0°C 75% 1.8 mph SSE2.9 kmh SSE 3.6 mph5.8 kmh 29.65 in1004.1 mb 0.00 in0.0 mm 0.00 in0.0 mm 0.00 in0.0 mm
08:05 PM 35.1°F1.7°C 28.4°F-2.0°C 75% 1.5 mph SE2.4 kmh SE 3.1 mph5.0 kmh 29.65 in1004.1 mb 0.00 in0.0 mm 0.00 in0.0 mm 0.00 in0.0 mm
08:10 PM 34.9°F1.6°C 28.4°F-2.0°C 76% 1.7 mph SE2.7 kmh SE 6.3 mph10.1 kmh 29.65 in1004.1 mb 0.00 in0.0 mm 0.00 in0.0 mm 0.00 in0.0 mm
08:15 PM 34.9°F1.6°C 28.4°F-2.0°C 76% 1.4 mph SSE2.3 kmh SSE 6.3 mph10.1 kmh 29.65 in1004.1 mb 0.00 in0.0 mm 0.00 in0.0 mm 0.00 in0.0 mm
08:20 PM 34.7°F1.5°C 28.4°F-2.0°C 76% 1.1 mph SSE1.8 kmh SSE 2.9 mph4.7 kmh 29.65 in1004.1 mb 0.00 in0.0 mm 0.00 in0.0 mm 0.00 in0.0 mm
08:25 PM 34.5°F1.4°C 28.4°F-2.0°C 77% 0.7 mph SE1.1 kmh SE 2.9 mph4.7 kmh 29.65 in1004.1 mb 0.00 in0.0 mm 0.00 in0.0 mm 0.00 in0.0 mm
08:30 PM 34.5°F1.4°C 28.4°F-2.0°C 77% 0.2 mph SE0.3 kmh SE 0.9 mph1.4 kmh 29.65 in1004.1 mb 0.00 in0.0 mm 0.00 in0.0 mm 0.00 in0.0 mm
08:35 PM 34.5°F1.4°C 28.4°F-2.0°C 77% 0.4 mph SSE0.6 kmh SSE 2.0 mph3.2 kmh 29.65 in1004.1 mb 0.00 in0.0 mm 0.00 in0.0 mm 0.00 in0.0 mm
08:40 PM 34.3°F1.3°C 28.4°F-2.0°C 77% 0.7 mph SSE1.1 kmh SSE 3.4 mph5.5 kmh 29.65 in1004.1 mb 0.00 in0.0 mm 0.00 in0.0 mm 0.00 in0.0 mm
08:45 PM 34.3°F1.3°C 28.4°F-2.0°C 77% 0.7 mph SE1.1 kmh SE 3.4 mph5.5 kmh 29.65 in1004.1 mb 0.00 in0.0 mm 0.00 in0.0 mm 0.00 in0.0 mm
08:50 PM 34.2°F1.2°C 28.4°F-2.0°C 77% 0.2 mph SE0.3 kmh SE 1.3 mph2.1 kmh 29.65 in1004.1 mb 0.00 in0.0 mm 0.00 in0.0 mm 0.00 in0.0 mm
08:55 PM 34.0°F1.1°C 28.4°F-2.0°C 77% 0.2 mph NE0.3 kmh NE 0.9 mph1.4 kmh 29.65 in1004.1 mb 0.00 in0.0 mm 0.00 in0.0 mm 0.00 in0.0 mm
09:00 PM 34.0°F1.1°C 28.4°F-2.0°C 78% 0.8 mph SE1.3 kmh SE 3.8 mph6.1 kmh 29.65 in1004.1 mb 0.00 in0.0 mm 0.00 in0.0 mm 0.00 in0.0 mm
09:05 PM 34.0°F1.1°C 28.4°F-2.0°C 78% 1.1 mph SE1.8 kmh SE 3.8 mph6.1 kmh 29.65 in1004.1 mb 0.00 in0.0 mm 0.00 in0.0 mm 0.00 in0.0 mm
09:10 PM 33.8°F1.0°C 28.4°F-2.0°C 78% 1.0 mph ESE1.6 kmh ESE 2.7 mph4.3 kmh 29.62 in1003.0 mb 0.06 in1.5 mm 0.72 in18.3 mm 0.06 in1.5 mm
09:15 PM 33.8°F1.0°C 28.4°F-2.0°C 78% 1.4 mph E2.3 kmh E 2.7 mph4.3 kmh 29.62 in1003.0 mb 0.06 in1.5 mm 0.00 in0.0 mm 0.06 in1.5 mm
09:20 PM 33.8°F1.0°C 28.4°F-2.0°C 78% 1.6 mph E2.6 kmh E 2.9 mph4.7 kmh 29.62 in1003.0 mb 0.06 in1.5 mm 0.00 in0.0 mm 0.06 in1.5 mm
09:25 PM 33.8°F1.0°C 28.4°F-2.0°C 78% 1.4 mph ESE2.3 kmh ESE 4.9 mph7.9 kmh 29.65 in1004.1 mb 0.06 in1.5 mm 0.00 in0.0 mm 0.06 in1.5 mm
09:30 PM 33.6°F0.9°C 28.4°F-2.0°C 78% 1.7 mph E2.7 kmh E 4.9 mph7.9 kmh 29.65 in1004.1 mb 0.06 in1.5 mm 0.00 in0.0 mm 0.06 in1.5 mm
09:35 PM 33.6°F0.9°C 28.4°F-2.0°C 78% 1.7 mph ESE2.7 kmh ESE 3.4 mph5.5 kmh 29.65 in1004.1 mb 0.06 in1.5 mm 0.00 in0.0 mm 0.06 in1.5 mm
09:40 PM 33.4°F0.8°C 28.4°F-2.0°C 78% 0.9 mph ESE1.4 kmh ESE 1.3 mph2.1 kmh 29.65 in1004.1 mb 0.06 in1.5 mm 0.00 in0.0 mm 0.06 in1.5 mm
09:45 PM 33.3°F0.7°C 26.6°F-3.0°C 78% 0.6 mph ESE1.0 kmh ESE 1.6 mph2.6 kmh 29.65 in1004.1 mb 0.06 in1.5 mm 0.00 in0.0 mm 0.06 in1.5 mm
09:50 PM 33.3°F0.7°C 26.6°F-3.0°C 78% 1.3 mph E2.1 kmh E 2.5 mph4.0 kmh 29.65 in1004.1 mb 0.06 in1.5 mm 0.00 in0.0 mm 0.06 in1.5 mm
09:55 PM 33.1°F0.6°C 26.6°F-3.0°C 78% 1.3 mph E2.1 kmh E 2.5 mph4.0 kmh 29.65 in1004.1 mb 0.06 in1.5 mm 0.00 in0.0 mm 0.06 in1.5 mm
10:00 PM 33.1°F0.6°C 28.4°F-2.0°C 79% 0.6 mph ESE1.0 kmh ESE 2.5 mph4.0 kmh 29.65 in1004.1 mb 0.06 in1.5 mm 0.00 in0.0 mm 0.06 in1.5 mm
10:05 PM 33.1°F0.6°C 28.4°F-2.0°C 79% 1.0 mph SE1.6 kmh SE 2.9 mph4.7 kmh 29.65 in1004.1 mb 0.06 in1.5 mm 0.00 in0.0 mm 0.06 in1.5 mm
10:10 PM 33.1°F0.6°C 28.4°F-2.0°C 79% 1.5 mph ESE2.4 kmh ESE 2.9 mph4.7 kmh 29.65 in1004.1 mb 0.00 in0.0 mm 0.00 in0.0 mm 0.06 in1.5 mm
10:15 PM 33.1°F0.6°C 28.4°F-2.0°C 79% 1.4 mph SE2.3 kmh SE 2.5 mph4.0 kmh 29.65 in1004.1 mb 0.00 in0.0 mm 0.00 in0.0 mm 0.06 in1.5 mm
10:20 PM 33.1°F0.6°C 28.4°F-2.0°C 79% 1.3 mph SE2.1 kmh SE 2.5 mph4.0 kmh 29.65 in1004.1 mb 0.00 in0.0 mm 0.00 in0.0 mm 0.06 in1.5 mm
10:25 PM 33.1°F0.6°C 28.4°F-2.0°C 79% 1.0 mph SE1.6 kmh SE 2.2 mph3.5 kmh 29.65 in1004.1 mb 0.00 in0.0 mm 0.00 in0.0 mm 0.06 in1.5 mm
10:30 PM 33.1°F0.6°C 28.4°F-2.0°C 79% 0.6 mph SSW1.0 kmh SSW 2.2 mph3.5 kmh 29.65 in1004.1 mb 0.00 in0.0 mm 0.00 in0.0 mm 0.06 in1.5 mm
10:35 PM 33.1°F0.6°C 28.4°F-2.0°C 79% 0.2 mph SSE0.3 kmh SSE 1.1 mph1.8 kmh 29.65 in1004.1 mb 0.00 in0.0 mm 0.00 in0.0 mm 0.06 in1.5 mm
10:40 PM 32.9°F0.5°C 28.4°F-2.0°C 79% 0.4 mph E0.6 kmh E 2.9 mph4.7 kmh 29.65 in1004.1 mb 0.00 in0.0 mm 0.00 in0.0 mm 0.06 in1.5 mm
10:45 PM 32.9°F0.5°C 28.4°F-2.0°C 79% 0.7 mph E1.1 kmh E 3.1 mph5.0 kmh 29.65 in1004.1 mb 0.00 in0.0 mm 0.00 in0.0 mm 0.06 in1.5 mm
10:50 PM 32.9°F0.5°C 28.4°F-2.0°C 79% 0.8 mph E1.3 kmh E 3.1 mph5.0 kmh 29.65 in1004.1 mb 0.00 in0.0 mm 0.00 in0.0 mm 0.06 in1.5 mm
10:55 PM 32.9°F0.5°C 28.4°F-2.0°C 79% 1.1 mph E1.8 kmh E 3.1 mph5.0 kmh 29.65 in1004.1 mb 0.00 in0.0 mm 0.00 in0.0 mm 0.06 in1.5 mm
11:00 PM 32.9°F0.5°C 28.4°F-2.0°C 79% 1.4 mph ESE2.3 kmh ESE 3.4 mph5.5 kmh 29.65 in1004.1 mb 0.00 in0.0 mm 0.00 in0.0 mm 0.06 in1.5 mm
11:05 PM 32.9°F0.5°C 28.4°F-2.0°C 79% 1.2 mph E1.9 kmh E 3.4 mph5.5 kmh 29.65 in1004.1 mb 0.00 in0.0 mm 0.00 in0.0 mm 0.06 in1.5 mm
11:10 PM 32.9°F0.5°C 28.4°F-2.0°C 79% 1.5 mph ESE2.4 kmh ESE 3.4 mph5.5 kmh 29.65 in1004.1 mb 0.00 in0.0 mm 0.00 in0.0 mm 0.06 in1.5 mm
11:15 PM 32.9°F0.5°C 28.4°F-2.0°C 79% 1.3 mph ESE2.1 kmh ESE 2.9 mph4.7 kmh 29.65 in1004.1 mb 0.00 in0.0 mm 0.00 in0.0 mm 0.06 in1.5 mm
11:20 PM 32.9°F0.5°C 28.4°F-2.0°C 79% 1.0 mph ENE1.6 kmh ENE 2.5 mph4.0 kmh 29.65 in1004.1 mb 0.00 in0.0 mm 0.00 in0.0 mm 0.06 in1.5 mm
11:25 PM 32.9°F0.5°C 28.4°F-2.0°C 80% 1.3 mph E2.1 kmh E 2.0 mph3.2 kmh 29.65 in1004.1 mb 0.00 in0.0 mm 0.00 in0.0 mm 0.06 in1.5 mm
11:30 PM 33.1°F0.6°C 28.4°F-2.0°C 80% 1.5 mph E2.4 kmh E 2.9 mph4.7 kmh 29.65 in1004.1 mb 0.00 in0.0 mm 0.00 in0.0 mm 0.06 in1.5 mm
11:35 PM 32.9°F0.5°C 28.4°F-2.0°C 80% 1.0 mph ESE1.6 kmh ESE 2.9 mph4.7 kmh 29.65 in1004.1 mb 0.00 in0.0 mm 0.00 in0.0 mm 0.06 in1.5 mm
11:40 PM 33.1°F0.6°C 28.4°F-2.0°C 80% 0.8 mph E1.3 kmh E 2.5 mph4.0 kmh 29.62 in1003.0 mb 0.00 in0.0 mm 0.00 in0.0 mm 0.06 in1.5 mm
11:45 PM 33.3°F0.7°C 28.4°F-2.0°C 80% 2.1 mph E3.4 kmh E 5.4 mph8.7 kmh 29.62 in1003.0 mb 0.00 in0.0 mm 0.00 in0.0 mm 0.06 in1.5 mm
11:50 PM 33.3°F0.7°C 28.4°F-2.0°C 80% 2.6 mph E4.2 kmh E 5.4 mph8.7 kmh 29.62 in1003.0 mb 0.00 in0.0 mm 0.00 in0.0 mm 0.06 in1.5 mm
11:55 PM 33.3°F0.7°C 28.4°F-2.0°C 80% 1.9 mph E3.1 kmh E 3.1 mph5.0 kmh 29.62 in1003.0 mb 0.00 in0.0 mm 0.00 in0.0 mm 0.06 in1.5 mm